CheckWX is a tool to help pilots better visualize weather data.  It is not intended as a substitute for an official pre-flight weather briefing.

23:04:51 UTC

KEUL TAF
Caldwell Industrial Airport
Caldwell, Idaho, USA
KEUL 082320Z 0900/0924 VRB05KT P6SM SKC

Jul-9@
00:00 UTC

Jul-9 @ 00:00 UTC

Jul-10@
00:00 UTC

Jul-10 @ 00:00 UTC

TAF KEUL 082320Z 0900/0924 VRB05KT P6SM SKC
Wind
  • Variable at 5 KTS
Cloud Levels
  • Clear skies